createdAt,value
2023-04-30T06:04:44.008Z,67.50
2023-04-30T06:05:43.578Z,67.50
2023-04-30T06:06:43.658Z,67.50
2023-04-30T06:07:43.545Z,67.50
2023-04-30T06:08:43.492Z,61.88
2023-04-30T06:09:43.497Z,61.88
2023-04-30T06:10:43.515Z,61.88
2023-04-30T06:11:43.739Z,61.88
2023-04-30T06:12:44.263Z,61.88
2023-04-30T06:13:43.394Z,67.50
2023-04-30T06:14:43.377Z,67.50
2023-04-30T06:15:43.362Z,73.13
2023-04-30T06:16:43.495Z,73.13
2023-04-30T06:17:43.375Z,78.75
2023-04-30T06:18:43.323Z,78.75
2023-04-30T06:19:43.304Z,84.38
2023-04-30T06:20:43.290Z,90.00
2023-04-30T06:21:43.285Z,95.63
2023-04-30T06:22:43.282Z,95.63
2023-04-30T06:23:43.256Z,101.25
2023-04-30T06:24:43.242Z,101.25
2023-04-30T06:25:43.239Z,101.25
2023-04-30T06:26:43.217Z,101.25
2023-04-30T06:27:43.211Z,106.88
2023-04-30T06:28:43.178Z,112.50
2023-04-30T06:29:43.164Z,163.13
2023-04-30T06:30:43.174Z,118.13
2023-04-30T06:31:43.188Z,123.75
2023-04-30T06:32:43.138Z,123.75
2023-04-30T06:33:43.192Z,123.75
2023-04-30T06:34:43.107Z,118.13
2023-04-30T06:35:43.088Z,112.50
2023-04-30T06:36:43.081Z,106.88
2023-04-30T06:37:43.057Z,106.88
2023-04-30T06:38:43.044Z,112.50
2023-04-30T06:39:43.034Z,118.13
2023-04-30T06:40:43.015Z,123.75
2023-04-30T06:41:43.001Z,135.00
2023-04-30T06:42:43.333Z,146.25
2023-04-30T06:43:42.984Z,157.50
2023-04-30T06:44:42.980Z,202.50
2023-04-30T06:45:42.952Z,208.13
2023-04-30T06:46:42.975Z,202.50
2023-04-30T06:47:43.139Z,196.88
2023-04-30T06:48:42.936Z,191.25
2023-04-30T06:49:42.903Z,180.00
2023-04-30T06:50:42.902Z,180.00
2023-04-30T06:51:42.878Z,180.00
2023-04-30T06:52:42.925Z,180.00
2023-04-30T06:53:42.849Z,185.63
2023-04-30T06:54:42.846Z,185.63
2023-04-30T06:55:42.990Z,185.63
2023-04-30T06:56:42.811Z,191.25
2023-04-30T06:57:42.804Z,202.50
2023-04-30T06:58:42.928Z,196.88
2023-04-30T06:59:42.774Z,202.50
2023-04-30T07:00:42.766Z,202.50
2023-04-30T07:01:42.857Z,202.50
2023-04-30T07:02:42.795Z,208.13
2023-04-30T07:03:42.863Z,213.75
2023-04-30T07:04:42.718Z,219.38
2023-04-30T07:05:42.711Z,219.38
2023-04-30T07:06:42.898Z,225.00
2023-04-30T07:07:42.686Z,225.00
2023-04-30T07:08:42.672Z,230.63
2023-04-30T07:09:42.794Z,230.63
2023-04-30T07:10:42.656Z,230.63
2023-04-30T07:11:42.633Z,236.25
2023-04-30T07:12:42.670Z,241.88
2023-04-30T07:13:42.617Z,247.50
2023-04-30T07:14:42.607Z,247.50
2023-04-30T07:15:42.606Z,253.13
2023-04-30T07:16:42.583Z,264.38
2023-04-30T07:17:42.704Z,270.00
2023-04-30T07:18:42.567Z,275.63
2023-04-30T07:19:42.551Z,281.25
2023-04-30T07:20:42.535Z,286.88
2023-04-30T07:21:42.526Z,292.50
2023-04-30T07:22:42.518Z,298.13
2023-04-30T07:23:42.509Z,303.75
2023-04-30T07:24:42.607Z,315.00
2023-04-30T07:25:42.489Z,320.63
2023-04-30T07:26:42.508Z,320.63
2023-04-30T07:27:42.499Z,331.88
2023-04-30T07:28:42.457Z,343.13
2023-04-30T07:29:42.446Z,348.75
2023-04-30T07:30:42.447Z,354.38
2023-04-30T07:31:42.471Z,360.00
2023-04-30T07:32:42.438Z,365.63
2023-04-30T07:33:42.472Z,365.63
2023-04-30T07:34:42.413Z,371.25
2023-04-30T07:35:42.400Z,371.25
2023-04-30T07:36:42.395Z,376.88
2023-04-30T07:37:42.391Z,382.50
2023-04-30T07:38:42.430Z,393.75
2023-04-30T07:39:42.875Z,393.75
2023-04-30T07:40:42.394Z,399.38
2023-04-30T07:41:42.388Z,399.38
2023-04-30T07:42:42.434Z,405.00
2023-04-30T07:43:42.357Z,410.63
2023-04-30T07:44:42.347Z,416.25
2023-04-30T07:45:42.377Z,421.88
2023-04-30T07:46:42.629Z,427.50
2023-04-30T07:47:42.376Z,433.13
2023-04-30T07:48:42.338Z,438.75
2023-04-30T07:49:42.366Z,438.75
2023-04-30T07:50:42.322Z,444.38
2023-04-30T07:51:42.326Z,450.00
2023-04-30T07:52:42.328Z,450.00
2023-04-30T07:53:42.308Z,455.63
2023-04-30T07:54:42.309Z,455.63
2023-04-30T07:55:42.300Z,461.25
2023-04-30T07:56:42.392Z,461.25
2023-04-30T07:57:42.291Z,466.88
2023-04-30T07:58:42.294Z,163.13
2023-04-30T07:59:42.286Z,478.13
2023-04-30T08:00:42.292Z,500.63
2023-04-30T08:01:42.303Z,500.63
2023-04-30T08:02:42.480Z,506.25
2023-04-30T08:03:42.339Z,506.25
2023-04-30T08:04:42.275Z,123.75
2023-04-30T08:05:42.302Z,331.88
2023-04-30T08:06:42.397Z,118.13
2023-04-30T08:07:42.273Z,523.13
2023-04-30T08:08:42.265Z,534.38
2023-04-30T08:09:42.258Z,556.88
2023-04-30T08:10:42.258Z,146.25
2023-04-30T08:11:42.254Z,208.13
2023-04-30T08:12:42.259Z,495.00
2023-04-30T08:13:42.247Z,551.25
2023-04-30T08:14:42.262Z,545.63
2023-04-30T08:15:42.353Z,157.50
2023-04-30T08:16:42.269Z,196.88
2023-04-30T08:17:42.295Z,568.13
2023-04-30T08:18:42.251Z,303.75
2023-04-30T08:19:42.242Z,174.38
2023-04-30T08:20:42.232Z,146.25
2023-04-30T08:21:42.377Z,393.75
2023-04-30T08:22:42.403Z,151.88
2023-04-30T08:23:42.209Z,163.13
2023-04-30T08:24:42.208Z,157.50
2023-04-30T08:25:42.216Z,225.00
2023-04-30T08:26:42.230Z,168.75
2023-04-30T08:27:42.194Z,168.75
2023-04-30T08:28:42.193Z,450.00
2023-04-30T08:29:42.179Z,562.50
2023-04-30T08:30:42.177Z,180.00
2023-04-30T08:31:42.190Z,208.13
2023-04-30T08:32:42.212Z,601.88
2023-04-30T08:33:42.165Z,590.63
2023-04-30T08:34:42.151Z,579.38
2023-04-30T08:35:42.146Z,573.75
2023-04-30T08:36:42.152Z,573.75
2023-04-30T08:37:42.161Z,568.13
2023-04-30T08:38:42.132Z,579.38
2023-04-30T08:39:42.126Z,579.38
2023-04-30T08:41:42.118Z,585.00
2023-04-30T08:42:42.114Z,585.00
2023-04-30T08:43:42.119Z,596.25
2023-04-30T08:44:42.113Z,607.50
2023-04-30T08:45:42.119Z,618.75
2023-04-30T08:46:42.156Z,618.75
2023-04-30T08:47:42.164Z,624.38
2023-04-30T08:48:42.114Z,483.75
2023-04-30T08:49:42.093Z,646.88
2023-04-30T08:50:42.097Z,652.50
2023-04-30T08:51:42.083Z,646.88
2023-04-30T08:52:42.086Z,624.38
2023-04-30T08:53:42.084Z,618.75
2023-04-30T08:54:42.089Z,624.38
2023-04-30T08:55:42.081Z,618.75
2023-04-30T08:56:42.080Z,624.38
2023-04-30T08:57:42.079Z,624.38
2023-04-30T08:58:42.080Z,630.00
2023-04-30T08:59:42.083Z,630.00
2023-04-30T09:00:42.087Z,624.38
2023-04-30T09:01:42.166Z,624.38
2023-04-30T09:02:42.172Z,624.38
2023-04-30T09:03:42.181Z,624.38
2023-04-30T09:04:42.082Z,624.38
2023-04-30T09:05:42.078Z,618.75
2023-04-30T09:06:42.235Z,630.00
2023-04-30T09:07:48.902Z,635.63
2023-04-30T09:08:42.081Z,185.63
2023-04-30T09:09:42.102Z,191.25
2023-04-30T09:10:42.095Z,213.75
2023-04-30T09:11:42.089Z,675.00
2023-04-30T09:12:42.147Z,652.50
2023-04-30T09:13:42.098Z,646.88
2023-04-30T09:14:42.088Z,641.25
2023-04-30T09:15:42.176Z,646.88
2023-04-30T09:16:42.131Z,652.50
2023-04-30T09:17:42.130Z,652.50
2023-04-30T09:18:42.084Z,658.13
2023-04-30T09:19:42.088Z,663.75
2023-04-30T09:20:42.096Z,675.00
2023-04-30T09:21:42.086Z,680.63
2023-04-30T09:22:42.098Z,697.50
2023-04-30T09:23:42.087Z,703.13
2023-04-30T09:24:42.092Z,708.75
2023-04-30T09:25:42.113Z,720.00
2023-04-30T09:26:42.244Z,725.63
2023-04-30T09:27:42.089Z,736.88
2023-04-30T09:28:42.104Z,776.25
2023-04-30T09:29:42.108Z,883.13
2023-04-30T09:30:42.106Z,956.25
2023-04-30T09:31:42.132Z,967.50
2023-04-30T09:32:42.137Z,984.38
2023-04-30T09:33:42.099Z,1001.25
2023-04-30T09:34:42.104Z,742.50
2023-04-30T09:35:42.220Z,1057.50
2023-04-30T09:36:42.106Z,945.00
2023-04-30T09:37:42.108Z,1074.38
2023-04-30T09:38:42.120Z,1057.50
2023-04-30T09:39:42.120Z,815.63
2023-04-30T09:40:42.148Z,196.88
2023-04-30T09:41:42.131Z,225.00
2023-04-30T09:42:42.121Z,483.75
2023-04-30T09:43:42.120Z,1119.38
2023-04-30T09:44:42.131Z,1074.38
2023-04-30T09:45:42.136Z,281.25
2023-04-30T09:46:42.191Z,236.25
2023-04-30T09:47:42.152Z,1153.13
2023-04-30T09:48:42.144Z,1141.88
2023-04-30T09:49:42.136Z,1158.75
2023-04-30T09:50:43.583Z,1130.63
2023-04-30T09:51:42.143Z,1186.88
2023-04-30T09:52:42.146Z,1119.38
2023-04-30T09:53:42.144Z,770.63
2023-04-30T09:54:42.149Z,1170.00
2023-04-30T09:55:42.233Z,1113.75
2023-04-30T09:56:42.171Z,348.75
2023-04-30T09:57:42.147Z,483.75
2023-04-30T09:58:42.155Z,270.00
2023-04-30T09:59:42.155Z,1147.50
2023-04-30T10:00:42.188Z,1153.13
2023-04-30T10:01:42.166Z,1164.38
2023-04-30T10:02:42.205Z,1158.75
2023-04-30T10:03:42.191Z,1164.38
2023-04-30T10:04:42.175Z,1175.63
2023-04-30T10:05:42.169Z,1164.38
2023-04-30T10:06:42.202Z,1181.25
2023-04-30T10:07:42.180Z,1192.50
2023-04-30T10:08:42.201Z,1220.63
2023-04-30T10:09:42.175Z,1271.25
2023-04-30T10:10:42.184Z,1321.88
2023-04-30T10:11:42.191Z,1417.50
2023-04-30T10:12:42.190Z,1501.88
2023-04-30T10:13:42.196Z,1350.00
2023-04-30T10:14:42.206Z,1479.38
2023-04-30T10:15:42.200Z,720.00
2023-04-30T10:16:42.235Z,1501.88
2023-04-30T10:17:42.235Z,1473.75
2023-04-30T10:18:42.212Z,1383.75
2023-04-30T10:19:42.226Z,1411.88
2023-04-30T10:20:42.244Z,1428.75
2023-04-30T10:21:42.226Z,1428.75
2023-04-30T10:22:42.228Z,1411.88
2023-04-30T10:23:42.233Z,1383.75
2023-04-30T10:24:42.238Z,1395.00
2023-04-30T10:25:42.243Z,1366.88
2023-04-30T10:26:42.254Z,1378.13
2023-04-30T10:27:42.255Z,1378.13
2023-04-30T10:28:42.268Z,1383.75
2023-04-30T10:29:42.271Z,1327.50
2023-04-30T10:30:42.267Z,1321.88
2023-04-30T10:31:42.298Z,1355.63
2023-04-30T10:32:42.346Z,1350.00
2023-04-30T10:33:42.282Z,1366.88
2023-04-30T10:34:42.318Z,1361.25
2023-04-30T10:35:42.292Z,1338.75
2023-04-30T10:36:42.307Z,1355.63
2023-04-30T10:37:42.305Z,1372.50
2023-04-30T10:38:42.319Z,1378.13
2023-04-30T10:39:42.316Z,1411.88
2023-04-30T10:40:42.321Z,1400.63
2023-04-30T10:41:42.328Z,1395.00
2023-04-30T10:42:42.334Z,1406.25
2023-04-30T10:43:42.338Z,1451.25
2023-04-30T10:44:42.346Z,1440.00
2023-04-30T10:45:42.413Z,1434.38
2023-04-30T10:46:42.629Z,1490.63
2023-04-30T10:47:42.410Z,1490.63
2023-04-30T10:48:42.377Z,1428.75
2023-04-30T10:49:42.383Z,1524.38
2023-04-30T10:50:44.349Z,1473.75
2023-04-30T10:51:42.388Z,1462.50
2023-04-30T10:52:42.455Z,1428.75
2023-04-30T10:53:42.405Z,1400.63
2023-04-30T10:54:42.409Z,1428.75
2023-04-30T10:55:42.417Z,1411.88
2023-04-30T10:56:42.433Z,1389.38
2023-04-30T10:57:42.441Z,399.38
2023-04-30T10:58:42.432Z,1170.00
2023-04-30T10:59:42.436Z,1434.38
2023-04-30T11:00:43.808Z,1434.38
2023-04-30T11:01:42.729Z,1417.50
2023-04-30T11:02:42.539Z,1383.75
2023-04-30T11:03:42.500Z,1018.13
2023-04-30T11:04:42.576Z,1366.88
2023-04-30T11:05:42.736Z,1344.38
2023-04-30T11:06:44.942Z,1344.38
2023-04-30T11:07:42.490Z,928.13
2023-04-30T11:08:42.510Z,1395.00
2023-04-30T11:09:42.504Z,264.38
2023-04-30T11:10:42.511Z,1378.13
2023-04-30T11:11:42.517Z,1338.75
2023-04-30T11:12:42.561Z,641.25
2023-04-30T11:13:42.533Z,1333.13
2023-04-30T11:14:42.539Z,1327.50
2023-04-30T11:15:42.572Z,1327.50
2023-04-30T11:16:42.639Z,1029.38
2023-04-30T11:17:42.583Z,1147.50
2023-04-30T11:18:42.574Z,1243.13
2023-04-30T11:19:42.566Z,1316.25
2023-04-30T11:20:42.575Z,1321.88
2023-04-30T11:21:42.589Z,1316.25
2023-04-30T11:22:42.583Z,461.25
2023-04-30T11:23:42.645Z,1321.88
2023-04-30T11:24:42.597Z,236.25
2023-04-30T11:25:42.603Z,1338.75
2023-04-30T11:26:42.637Z,1361.25
2023-04-30T11:27:42.628Z,551.25
2023-04-30T11:28:42.632Z,1046.25
2023-04-30T11:29:42.623Z,1333.13
2023-04-30T11:30:42.628Z,1327.50
2023-04-30T11:31:42.671Z,545.63
2023-04-30T11:32:42.703Z,1310.63
2023-04-30T11:33:42.664Z,1338.75
2023-04-30T11:34:42.655Z,1344.38
2023-04-30T11:35:42.653Z,1321.88
2023-04-30T11:36:43.639Z,1029.38
2023-04-30T11:37:42.667Z,337.50
2023-04-30T11:38:42.668Z,275.63
2023-04-30T11:39:42.696Z,264.38
2023-04-30T11:40:42.678Z,236.25
2023-04-30T11:41:42.689Z,298.13
2023-04-30T11:42:45.464Z,1361.25
2023-04-30T11:43:42.700Z,1282.50
2023-04-30T11:44:42.696Z,675.00
2023-04-30T11:45:42.709Z,1068.75
2023-04-30T11:46:42.766Z,315.00
2023-04-30T11:47:42.733Z,686.25
2023-04-30T11:48:42.711Z,219.38
2023-04-30T11:49:42.718Z,225.00
2023-04-30T11:50:42.732Z,691.88
2023-04-30T11:51:42.718Z,781.88
2023-04-30T11:52:42.723Z,258.75
2023-04-30T11:53:42.731Z,258.75
2023-04-30T11:54:42.753Z,703.13
2023-04-30T11:55:42.733Z,337.50
2023-04-30T11:56:43.297Z,241.88
2023-04-30T11:57:42.734Z,191.25
2023-04-30T11:58:42.736Z,545.63
2023-04-30T11:59:42.734Z,635.63
2023-04-30T12:00:42.742Z,652.50
2023-04-30T12:01:42.775Z,630.00
2023-04-30T12:02:43.032Z,275.63
2023-04-30T12:03:42.854Z,562.50
2023-04-30T12:04:42.744Z,630.00
2023-04-30T12:05:42.760Z,613.13
2023-04-30T12:06:43.014Z,551.25
2023-04-30T12:07:42.749Z,225.00
2023-04-30T12:08:42.748Z,219.38
2023-04-30T12:09:42.762Z,208.13
2023-04-30T12:10:42.750Z,157.50
2023-04-30T12:11:42.749Z,157.50
2023-04-30T12:12:42.760Z,174.38
2023-04-30T12:13:42.752Z,573.75
2023-04-30T12:14:42.750Z,208.13
2023-04-30T12:15:42.754Z,579.38
2023-04-30T12:16:42.824Z,568.13
2023-04-30T12:17:42.771Z,568.13
2023-04-30T12:18:42.753Z,534.38
2023-04-30T12:19:42.752Z,534.38
2023-04-30T12:20:42.766Z,545.63
2023-04-30T12:21:42.754Z,540.00
2023-04-30T12:22:42.753Z,551.25
2023-04-30T12:23:42.761Z,528.75
2023-04-30T12:24:42.757Z,528.75
2023-04-30T12:25:42.758Z,517.50
2023-04-30T12:26:42.755Z,523.13
2023-04-30T12:27:42.768Z,208.13
2023-04-30T12:28:42.758Z,511.88
2023-04-30T12:29:42.760Z,489.38
2023-04-30T12:30:42.757Z,523.13
2023-04-30T12:31:42.786Z,517.50
2023-04-30T12:32:42.764Z,523.13
2023-04-30T12:33:42.764Z,540.00
2023-04-30T12:34:42.758Z,545.63
2023-04-30T12:35:42.778Z,523.13
2023-04-30T12:36:42.765Z,438.75
2023-04-30T12:37:42.781Z,286.88
2023-04-30T12:38:42.763Z,343.13
2023-04-30T12:39:42.767Z,208.13
2023-04-30T12:40:42.767Z,444.38
2023-04-30T12:41:42.787Z,253.13
2023-04-30T12:42:42.762Z,168.75
2023-04-30T12:43:42.766Z,163.13
2023-04-30T12:44:42.771Z,157.50
2023-04-30T12:45:42.788Z,151.88
2023-04-30T12:46:42.819Z,151.88
2023-04-30T12:47:42.810Z,151.88
2023-04-30T12:48:42.763Z,157.50
2023-04-30T12:49:42.770Z,360.00
2023-04-30T12:50:42.764Z,337.50
2023-04-30T12:51:42.764Z,343.13
2023-04-30T12:52:44.037Z,343.13
2023-04-30T12:53:42.754Z,337.50
2023-04-30T12:54:42.764Z,320.63
2023-04-30T12:55:42.752Z,309.38
2023-04-30T12:56:42.748Z,309.38
2023-04-30T12:57:42.745Z,298.13
2023-04-30T12:58:42.752Z,140.63
2023-04-30T12:59:42.736Z,298.13
2023-04-30T13:00:42.742Z,270.00
2023-04-30T13:01:42.836Z,281.25
2023-04-30T13:02:42.806Z,292.50
2023-04-30T13:03:42.946Z,281.25
2023-04-30T13:04:42.719Z,270.00
2023-04-30T13:05:42.719Z,253.13
2023-04-30T13:06:42.840Z,270.00
2023-04-30T13:07:42.710Z,270.00
2023-04-30T13:08:57.155Z,258.75
2023-04-30T13:09:42.702Z,270.00
2023-04-30T13:10:42.694Z,270.00
2023-04-30T13:11:42.696Z,258.75
2023-04-30T13:12:42.717Z,275.63
2023-04-30T13:13:42.688Z,292.50
2023-04-30T13:14:42.693Z,163.13
2023-04-30T13:15:42.740Z,151.88
2023-04-30T13:16:42.726Z,146.25
2023-04-30T13:17:42.687Z,140.63
2023-04-30T13:18:42.669Z,247.50
2023-04-30T13:19:42.663Z,135.00
2023-04-30T13:20:42.647Z,264.38
2023-04-30T13:21:42.639Z,258.75
2023-04-30T13:22:42.716Z,146.25
2023-04-30T13:23:51.932Z,146.25
2023-04-30T13:24:42.619Z,151.88
2023-04-30T13:25:42.615Z,129.38
2023-04-30T13:26:42.611Z,123.75
2023-04-30T13:27:42.615Z,129.38
2023-04-30T13:28:42.602Z,208.13
2023-04-30T13:29:42.598Z,258.75
2023-04-30T13:30:42.588Z,258.75
2023-04-30T13:31:42.631Z,253.13
2023-04-30T13:32:42.630Z,208.13
2023-04-30T13:33:42.574Z,230.63
2023-04-30T13:34:42.566Z,219.38
2023-04-30T13:35:42.561Z,118.13
2023-04-30T13:36:42.564Z,135.00
2023-04-30T13:37:42.577Z,202.50
2023-04-30T13:38:42.540Z,202.50
2023-04-30T13:39:42.533Z,202.50
2023-04-30T13:40:42.524Z,202.50
2023-04-30T13:41:42.517Z,208.13
2023-04-30T13:42:42.518Z,208.13
2023-04-30T13:43:42.939Z,191.25
2023-04-30T13:44:42.497Z,191.25
2023-04-30T13:45:42.493Z,196.88
2023-04-30T13:46:42.562Z,196.88
2023-04-30T13:47:42.523Z,174.38
2023-04-30T13:48:42.521Z,208.13
2023-04-30T13:49:42.468Z,174.38
2023-04-30T13:50:42.465Z,163.13
2023-04-30T13:51:42.452Z,151.88
2023-04-30T13:52:42.448Z,146.25
2023-04-30T13:53:42.447Z,135.00
2023-04-30T13:54:42.436Z,140.63
2023-04-30T13:55:42.448Z,123.75
2023-04-30T13:56:42.417Z,118.13
2023-04-30T13:57:42.417Z,112.50
2023-04-30T13:58:42.414Z,112.50
2023-04-30T13:59:42.414Z,112.50
2023-04-30T14:00:42.459Z,112.50
2023-04-30T14:01:42.437Z,112.50
2023-04-30T14:02:42.572Z,118.13
2023-04-30T14:03:42.579Z,146.25
2023-04-30T14:04:51.479Z,140.63
2023-04-30T14:05:42.490Z,135.00
2023-04-30T14:06:42.467Z,135.00
2023-04-30T14:07:42.446Z,135.00
2023-04-30T14:08:42.439Z,135.00
2023-04-30T14:09:42.339Z,129.38
2023-04-30T14:10:42.337Z,123.75
2023-04-30T14:11:42.320Z,123.75
2023-04-30T14:12:42.308Z,123.75
2023-04-30T14:13:42.316Z,118.13
2023-04-30T14:14:42.296Z,118.13
2023-04-30T14:15:42.294Z,118.13
2023-04-30T14:16:42.305Z,123.75
2023-04-30T14:17:42.338Z,123.75
2023-04-30T14:18:42.260Z,129.38
2023-04-30T14:19:42.260Z,129.38
2023-04-30T14:20:42.251Z,135.00
2023-04-30T14:21:42.243Z,146.25
2023-04-30T14:22:42.282Z,151.88
2023-04-30T14:23:42.223Z,151.88
2023-04-30T14:24:42.215Z,163.13
2023-04-30T14:25:42.213Z,151.88
2023-04-30T14:26:42.193Z,151.88
2023-04-30T14:27:42.197Z,146.25
2023-04-30T14:28:42.183Z,129.38
2023-04-30T14:29:42.169Z,129.38
2023-04-30T14:30:42.178Z,106.88
2023-04-30T14:31:42.220Z,95.63
2023-04-30T14:32:42.209Z,84.38
2023-04-30T14:33:42.142Z,78.75
2023-04-30T14:34:42.166Z,78.75
2023-04-30T14:35:42.139Z,73.13
2023-04-30T14:36:42.118Z,73.13
2023-04-30T14:37:42.113Z,73.13
2023-04-30T14:38:42.104Z,73.13
2023-04-30T14:39:42.115Z,73.13
2023-04-30T14:40:42.090Z,73.13
2023-04-30T14:41:42.077Z,78.75
2023-04-30T14:42:42.086Z,90.00
2023-04-30T14:43:42.094Z,90.00
2023-04-30T14:44:42.056Z,95.63
2023-04-30T14:45:42.315Z,95.63
2023-04-30T14:46:42.045Z,95.63
2023-04-30T14:47:42.088Z,101.25
2023-04-30T14:48:42.036Z,101.25
2023-04-30T14:49:42.029Z,106.88
2023-04-30T14:50:42.026Z,106.88
2023-04-30T14:51:42.001Z,106.88
2023-04-30T14:52:42.021Z,101.25
2023-04-30T14:53:41.998Z,101.25
2023-04-30T14:54:41.982Z,101.25
2023-04-30T14:55:41.992Z,101.25
2023-04-30T14:56:41.990Z,101.25
2023-04-30T14:57:41.960Z,95.63
2023-04-30T14:58:41.951Z,90.00
2023-04-30T14:59:41.966Z,84.38
2023-04-30T15:00:41.931Z,78.75
2023-04-30T15:01:42.060Z,78.75
2023-04-30T15:02:42.024Z,78.75
2023-04-30T15:03:42.054Z,73.13
2023-04-30T15:04:41.900Z,73.13
2023-04-30T15:05:41.891Z,78.75
2023-04-30T15:06:41.955Z,78.75
2023-04-30T15:07:41.873Z,73.13
2023-04-30T15:08:42.054Z,73.13
2023-04-30T15:09:41.862Z,78.75
2023-04-30T15:10:41.869Z,78.75
2023-04-30T15:11:41.842Z,78.75
2023-04-30T15:12:41.828Z,78.75
2023-04-30T15:13:41.830Z,84.38
2023-04-30T15:14:41.831Z,84.38
2023-04-30T15:15:41.905Z,90.00
2023-04-30T15:16:41.796Z,95.63
2023-04-30T15:17:41.802Z,95.63
2023-04-30T15:18:41.776Z,95.63
2023-04-30T15:19:41.767Z,95.63
2023-04-30T15:20:41.772Z,95.63
2023-04-30T15:21:41.748Z,95.63
2023-04-30T15:22:41.740Z,90.00
2023-04-30T15:23:42.839Z,90.00
2023-04-30T15:24:41.823Z,84.38
2023-04-30T15:25:41.711Z,78.75
2023-04-30T15:26:41.710Z,73.13
2023-04-30T15:27:41.689Z,73.13
2023-04-30T15:28:41.690Z,67.50
2023-04-30T15:29:41.682Z,67.50
2023-04-30T15:30:41.683Z,67.50
2023-04-30T15:31:41.708Z,67.50
2023-04-30T15:32:41.671Z,67.50
2023-04-30T15:33:41.697Z,67.50
2023-04-30T15:34:41.649Z,67.50
2023-04-30T15:35:41.620Z,67.50
2023-04-30T15:36:41.616Z,67.50
2023-04-30T15:37:41.604Z,67.50
2023-04-30T15:38:41.605Z,67.50
2023-04-30T15:39:41.604Z,67.50
2023-04-30T15:40:41.694Z,67.50
2023-04-30T15:41:41.564Z,73.13
2023-04-30T15:42:41.561Z,67.50
2023-04-30T15:43:41.546Z,73.13
2023-04-30T15:44:41.544Z,73.13
2023-04-30T15:45:41.525Z,73.13
2023-04-30T15:46:41.575Z,67.50
2023-04-30T15:47:41.595Z,67.50
2023-04-30T15:48:41.505Z,67.50
2023-04-30T15:49:41.491Z,61.88
2023-04-30T15:50:41.487Z,56.25
2023-04-30T15:51:41.482Z,56.25
2023-04-30T15:52:41.494Z,56.25
2023-04-30T15:53:41.462Z,56.25
2023-04-30T15:54:41.446Z,56.25
2023-04-30T15:55:41.440Z,56.25
2023-04-30T15:56:41.445Z,56.25
2023-04-30T15:57:41.423Z,56.25
2023-04-30T15:58:41.428Z,56.25
2023-04-30T15:59:41.401Z,56.25
2023-04-30T16:00:41.392Z,56.25
2023-04-30T16:01:41.431Z,61.88
2023-04-30T16:02:41.477Z,61.88
2023-04-30T16:03:41.483Z,61.88
2023-04-30T16:04:41.365Z,67.50
2023-04-30T16:05:41.343Z,67.50
2023-04-30T16:06:41.404Z,67.50
2023-04-30T16:07:43.130Z,73.13
2023-04-30T16:08:41.313Z,78.75
2023-04-30T16:09:41.302Z,78.75
2023-04-30T16:10:41.293Z,73.13
2023-04-30T16:11:41.285Z,67.50
2023-04-30T16:12:41.312Z,61.88
2023-04-30T16:13:41.276Z,67.50
2023-04-30T16:14:41.261Z,61.88
2023-04-30T16:15:41.241Z,56.25
2023-04-30T16:16:41.334Z,50.63
2023-04-30T16:17:41.331Z,50.63
2023-04-30T16:18:41.226Z,50.63
2023-04-30T16:19:41.210Z,45.00
2023-04-30T16:20:41.196Z,45.00
2023-04-30T16:21:41.190Z,45.00
2023-04-30T16:22:41.196Z,39.38
2023-04-30T16:23:41.261Z,39.38
2023-04-30T16:24:41.167Z,39.38
2023-04-30T16:25:41.162Z,39.38
2023-04-30T16:26:41.163Z,39.38
2023-04-30T16:27:41.130Z,39.38
2023-04-30T16:28:41.129Z,39.38
2023-04-30T16:29:41.109Z,39.38
2023-04-30T16:30:41.099Z,39.38
2023-04-30T16:31:41.109Z,39.38
2023-04-30T16:32:41.114Z,39.38
2023-04-30T16:33:41.070Z,39.38
2023-04-30T16:34:41.068Z,39.38
2023-04-30T16:35:41.044Z,33.75
2023-04-30T16:36:41.615Z,33.75
2023-04-30T16:37:41.026Z,33.75
2023-04-30T16:38:41.014Z,33.75
2023-04-30T16:39:41.011Z,33.75
2023-04-30T16:40:40.996Z,33.75
2023-04-30T16:41:40.977Z,33.75
2023-04-30T16:42:41.005Z,33.75
2023-04-30T16:43:40.956Z,33.75
2023-04-30T16:44:40.979Z,33.75
2023-04-30T16:45:40.984Z,33.75
2023-04-30T16:46:40.932Z,33.75
2023-04-30T16:47:40.940Z,33.75
2023-04-30T16:48:40.910Z,33.75
2023-04-30T16:49:40.893Z,33.75
2023-04-30T16:50:41.107Z,33.75
2023-04-30T16:51:40.872Z,33.75
2023-04-30T16:52:40.872Z,33.75
2023-04-30T16:53:40.858Z,33.75
2023-04-30T16:54:40.845Z,33.75
2023-04-30T16:55:40.837Z,33.75
2023-04-30T16:56:40.830Z,33.75
2023-04-30T16:57:40.813Z,33.75
2023-04-30T16:58:40.815Z,33.75
2023-04-30T16:59:40.788Z,28.13
2023-04-30T17:00:40.778Z,28.13
2023-04-30T17:01:40.835Z,28.13
2023-04-30T17:02:40.904Z,28.13
2023-04-30T17:03:40.866Z,28.13
2023-04-30T17:04:40.736Z,28.13
2023-04-30T17:05:40.896Z,28.13
2023-04-30T17:06:40.724Z,28.13
2023-04-30T17:07:40.699Z,28.13
2023-04-30T17:08:40.713Z,28.13
2023-04-30T17:09:40.681Z,33.75
2023-04-30T17:10:40.679Z,33.75
2023-04-30T17:11:40.662Z,33.75
2023-04-30T17:12:40.649Z,33.75
2023-04-30T17:13:40.632Z,33.75
2023-04-30T17:14:40.621Z,33.75
2023-04-30T17:15:40.644Z,33.75
2023-04-30T17:16:40.607Z,33.75
2023-04-30T17:17:40.639Z,33.75
2023-04-30T17:18:40.597Z,33.75
2023-04-30T17:19:40.591Z,28.13
2023-04-30T17:20:40.575Z,28.13
2023-04-30T17:21:40.583Z,28.13
2023-04-30T17:22:40.537Z,28.13
2023-04-30T17:23:40.528Z,28.13
2023-04-30T17:24:40.524Z,28.13
2023-04-30T17:25:40.518Z,28.13
2023-04-30T17:26:40.497Z,28.13
2023-04-30T17:27:40.481Z,28.13
2023-04-30T17:28:40.491Z,28.13
2023-04-30T17:29:40.456Z,28.13
2023-04-30T17:30:40.469Z,28.13
2023-04-30T17:31:40.525Z,28.13
2023-04-30T17:32:40.489Z,28.13
2023-04-30T17:33:41.327Z,28.13
2023-04-30T17:34:40.402Z,22.50
2023-04-30T17:35:40.398Z,22.50
2023-04-30T17:36:40.379Z,22.50
2023-04-30T17:37:40.368Z,22.50
2023-04-30T17:38:40.377Z,22.50
2023-04-30T17:39:40.351Z,22.50
2023-04-30T17:40:40.330Z,22.50
2023-04-30T17:41:40.331Z,22.50
2023-04-30T17:42:40.328Z,22.50
2023-04-30T17:43:40.298Z,22.50
2023-04-30T17:44:40.288Z,22.50
2023-04-30T17:45:40.279Z,22.50
2023-04-30T17:46:40.343Z,22.50
2023-04-30T17:47:40.334Z,22.50
2023-04-30T17:48:40.247Z,16.88
2023-04-30T17:49:40.251Z,16.88
2023-04-30T17:50:40.222Z,16.88
2023-04-30T17:51:40.210Z,16.88
2023-04-30T17:52:40.234Z,16.88
2023-04-30T17:53:40.209Z,16.88
2023-04-30T17:54:40.183Z,16.88
2023-04-30T17:55:40.170Z,16.88
2023-04-30T17:56:40.156Z,16.88
2023-04-30T17:57:40.151Z,16.88
2023-04-30T17:58:40.319Z,16.88
2023-04-30T17:59:40.135Z,11.25
2023-04-30T18:00:40.109Z,11.25
2023-04-30T18:01:40.144Z,11.25
2023-04-30T18:02:40.165Z,11.25
2023-04-30T18:03:40.186Z,11.25
2023-04-30T18:04:40.063Z,11.25
2023-04-30T18:05:40.085Z,11.25
2023-04-30T18:06:40.109Z,11.25
2023-04-30T18:07:40.041Z,11.25
2023-04-30T18:08:40.015Z,11.25
2023-04-30T18:09:40.006Z,11.25
2023-04-30T18:10:40.000Z,11.25
2023-04-30T18:11:40.016Z,5.63
2023-04-30T18:12:39.967Z,5.63
2023-04-30T18:13:39.954Z,5.63
2023-04-30T18:14:39.955Z,5.63
2023-04-30T18:15:39.937Z,5.63
2023-04-30T18:16:39.935Z,5.63
2023-04-30T18:17:39.955Z,5.63
2023-04-30T18:18:39.903Z,5.63
2023-04-30T18:19:39.880Z,5.63
2023-04-30T18:20:39.900Z,5.63
2023-04-30T18:21:39.886Z,5.63
2023-04-30T18:22:39.879Z,5.63
2023-04-30T18:23:39.839Z,5.63
2023-04-30T18:24:39.942Z,5.63
2023-04-30T18:25:39.815Z,0.00
2023-04-30T18:26:39.878Z,0.00
2023-04-30T18:27:39.795Z,0.00
2023-04-30T18:28:39.777Z,0.00
2023-04-30T18:29:39.764Z,0.00
2023-04-30T18:30:39.758Z,0.00
2023-04-30T18:31:39.825Z,0.00
2023-04-30T18:32:39.828Z,0.00
2023-04-30T18:33:39.732Z,0.00
2023-04-30T18:34:39.704Z,0.00
2023-04-30T18:35:39.696Z,0.00
2023-04-30T18:36:39.679Z,0.00
2023-04-30T18:37:39.697Z,0.00
2023-04-30T18:38:39.665Z,0.00
2023-04-30T18:39:39.648Z,0.00